createdAt,value
2018-09-29T00:01:38.951Z,5.30
2018-09-29T00:04:06.539Z,5.30
2018-09-29T00:06:34.062Z,5.20
2018-09-29T00:09:01.601Z,5.20
2018-09-29T00:11:29.129Z,5.10
2018-09-29T00:13:56.663Z,5.10
2018-09-29T00:16:24.233Z,5.10
2018-09-29T00:18:51.729Z,5.00
2018-09-29T00:21:19.253Z,5.00
2018-09-29T00:23:46.765Z,5.00
2018-09-29T00:26:14.299Z,4.90
2018-09-29T00:28:41.818Z,4.90
2018-09-29T00:31:09.344Z,4.90
2018-09-29T00:33:37.272Z,4.80
2018-09-29T00:36:05.117Z,4.80
2018-09-29T00:38:32.621Z,4.90
2018-09-29T00:41:00.121Z,4.80
2018-09-29T00:43:27.638Z,4.80
2018-09-29T00:45:55.149Z,4.80
2018-09-29T00:48:22.634Z,4.80
2018-09-29T00:50:50.159Z,4.80
2018-09-29T00:53:17.675Z,4.80
2018-09-29T00:55:45.176Z,4.90
2018-09-29T00:58:12.708Z,4.90
2018-09-29T01:00:40.229Z,4.90
2018-09-29T01:03:07.747Z,4.90
2018-09-29T01:05:35.280Z,5.00
2018-09-29T01:08:02.822Z,5.00
2018-09-29T01:10:30.353Z,5.00
2018-09-29T01:12:57.853Z,5.00
2018-09-29T01:15:25.369Z,5.00
2018-09-29T01:17:52.875Z,5.00
2018-09-29T01:20:20.477Z,5.00
2018-09-29T01:22:48.006Z,5.00
2018-09-29T01:25:15.532Z,4.90
2018-09-29T01:27:43.034Z,4.90
2018-09-29T01:30:10.548Z,4.90
2018-09-29T01:32:38.067Z,4.90
2018-09-29T01:35:05.742Z,4.90
2018-09-29T01:37:33.306Z,4.80
2018-09-29T01:42:35.031Z,4.80
2018-09-29T01:45:02.571Z,4.80
2018-09-29T01:47:30.104Z,4.80
2018-09-29T01:49:57.626Z,4.80
2018-09-29T01:52:25.169Z,4.70
2018-09-29T01:54:52.705Z,4.70
2018-09-29T01:57:20.253Z,4.70
2018-09-29T01:59:47.779Z,4.60
2018-09-29T02:02:15.334Z,4.60
2018-09-29T02:04:42.834Z,4.50
2018-09-29T02:07:10.348Z,4.50
2018-09-29T02:09:37.854Z,4.50
2018-09-29T02:12:05.418Z,4.40
2018-09-29T02:14:32.924Z,4.40
2018-09-29T02:17:00.437Z,4.40
2018-09-29T02:19:27.962Z,4.40
2018-09-29T02:21:55.506Z,4.40
2018-09-29T02:24:23.016Z,4.30
2018-09-29T02:26:50.567Z,4.40
2018-09-29T02:29:18.078Z,4.40
2018-09-29T02:31:45.585Z,4.40
2018-09-29T02:34:13.105Z,4.40
2018-09-29T02:36:40.639Z,4.40
2018-09-29T02:39:09.888Z,4.40
2018-09-29T02:41:37.431Z,4.40
2018-09-29T02:44:04.947Z,4.40
2018-09-29T02:46:32.453Z,4.40
2018-09-29T02:48:59.960Z,4.40
2018-09-29T02:51:27.470Z,4.40
2018-09-29T02:53:55.035Z,4.50
2018-09-29T02:56:22.559Z,4.50
2018-09-29T02:58:50.241Z,4.50
2018-09-29T03:01:17.743Z,4.50
2018-09-29T03:03:45.383Z,4.60
2018-09-29T03:06:12.877Z,4.50
2018-09-29T03:08:40.390Z,4.60
2018-09-29T03:11:07.895Z,4.50
2018-09-29T03:13:35.407Z,4.50
2018-09-29T03:16:02.904Z,4.60
2018-09-29T03:18:30.411Z,4.60
2018-09-29T03:20:58.091Z,4.50
2018-09-29T03:23:25.593Z,4.50
2018-09-29T03:25:53.104Z,4.50
2018-09-29T03:28:20.606Z,4.40
2018-09-29T03:30:48.107Z,4.30
2018-09-29T03:33:15.611Z,4.30
2018-09-29T03:35:50.081Z,4.20
2018-09-29T03:38:17.594Z,4.00
2018-09-29T03:40:45.114Z,4.00
2018-09-29T03:43:12.627Z,3.90
2018-09-29T03:45:40.166Z,3.80
2018-09-29T03:48:07.690Z,3.80
2018-09-29T03:50:35.189Z,3.80
2018-09-29T03:53:02.717Z,3.80
2018-09-29T03:55:30.232Z,3.80
2018-09-29T03:57:57.745Z,3.80
2018-09-29T04:00:25.241Z,3.80
2018-09-29T04:02:52.758Z,3.80
2018-09-29T04:05:20.287Z,3.90
2018-09-29T04:07:47.790Z,3.90
2018-09-29T04:10:15.293Z,3.90
2018-09-29T04:12:42.797Z,3.90
2018-09-29T04:15:10.328Z,3.90
2018-09-29T04:17:37.845Z,3.90
2018-09-29T04:20:05.461Z,3.90
2018-09-29T04:22:32.962Z,3.90
2018-09-29T04:25:00.466Z,3.80
2018-09-29T04:27:27.961Z,3.80
2018-09-29T04:29:55.467Z,3.80
2018-09-29T04:32:22.966Z,3.70
2018-09-29T04:34:50.465Z,3.80
2018-09-29T04:37:17.994Z,3.80
2018-09-29T04:39:45.497Z,3.80
2018-09-29T04:42:13.026Z,3.80
2018-09-29T04:44:40.539Z,3.80
2018-09-29T04:47:08.046Z,3.80
2018-09-29T04:49:35.569Z,3.80
2018-09-29T04:52:03.083Z,3.90
2018-09-29T04:54:30.589Z,3.90
2018-09-29T04:56:58.080Z,3.90
2018-09-29T04:59:25.671Z,3.90
2018-09-29T05:01:53.231Z,3.90
2018-09-29T05:04:20.803Z,3.90
2018-09-29T05:06:48.349Z,3.90
2018-09-29T05:09:15.956Z,4.00
2018-09-29T05:11:43.515Z,4.00
2018-09-29T05:14:11.068Z,4.00
2018-09-29T05:16:38.628Z,4.00
2018-09-29T05:19:06.194Z,4.00
2018-09-29T05:21:33.737Z,4.10
2018-09-29T05:24:01.282Z,4.10
2018-09-29T05:26:28.835Z,4.10
2018-09-29T05:28:56.411Z,4.20
2018-09-29T05:31:23.953Z,4.20
2018-09-29T05:33:51.510Z,4.20
2018-09-29T05:36:19.059Z,4.20
2018-09-29T05:38:46.623Z,4.30
2018-09-29T05:41:14.171Z,4.30
2018-09-29T05:43:41.699Z,4.30
2018-09-29T05:46:09.248Z,4.40
2018-09-29T05:48:36.773Z,4.40
2018-09-29T05:51:04.364Z,4.40
2018-09-29T05:53:31.917Z,4.50
2018-09-29T05:55:59.734Z,4.50
2018-09-29T05:58:27.274Z,4.50
2018-09-29T06:00:54.829Z,4.60
2018-09-29T06:03:22.353Z,4.60
2018-09-29T06:05:49.921Z,4.60
2018-09-29T06:08:17.434Z,4.60
2018-09-29T06:10:44.973Z,4.70
2018-09-29T06:13:12.845Z,4.70
2018-09-29T06:15:40.351Z,4.80
2018-09-29T06:18:07.874Z,4.80
2018-09-29T06:20:35.410Z,4.80
2018-09-29T06:23:02.940Z,4.90
2018-09-29T06:25:30.482Z,4.90
2018-09-29T06:27:58.088Z,4.90
2018-09-29T06:30:25.579Z,5.00
2018-09-29T06:32:53.094Z,5.10
2018-09-29T06:35:20.642Z,5.10
2018-09-29T06:37:48.178Z,5.20
2018-09-29T06:40:15.738Z,5.30
2018-09-29T06:42:43.274Z,5.30
2018-09-29T06:45:10.830Z,5.50
2018-09-29T06:47:38.409Z,5.50
2018-09-29T06:50:05.946Z,5.70
2018-09-29T06:52:33.458Z,5.80
2018-09-29T06:55:01.002Z,5.90
2018-09-29T06:57:28.543Z,6.00
2018-09-29T06:59:56.094Z,6.20
2018-09-29T07:02:23.634Z,6.30
2018-09-29T07:04:51.176Z,6.50
2018-09-29T07:07:18.715Z,6.60
2018-09-29T07:09:46.254Z,6.80
2018-09-29T07:12:13.789Z,6.90
2018-09-29T07:14:41.326Z,7.10
2018-09-29T07:17:08.846Z,7.20
2018-09-29T07:19:36.365Z,7.40
2018-09-29T07:22:03.904Z,7.50
2018-09-29T07:24:31.444Z,7.60
2018-09-29T07:26:59.201Z,7.70
2018-09-29T07:29:26.686Z,7.90
2018-09-29T07:31:54.215Z,8.00
2018-09-29T07:34:21.717Z,8.10
2018-09-29T07:36:49.233Z,8.20
2018-09-29T07:39:16.743Z,8.30
2018-09-29T07:41:44.262Z,8.40
2018-09-29T07:44:11.759Z,8.50
2018-09-29T07:46:39.274Z,8.60
2018-09-29T07:49:07.039Z,8.70
2018-09-29T07:51:34.542Z,8.80
2018-09-29T07:54:02.045Z,8.90
2018-09-29T07:56:29.572Z,9.00
2018-09-29T07:58:57.053Z,9.10
2018-09-29T08:01:24.559Z,9.20
2018-09-29T08:03:52.059Z,9.30
2018-09-29T08:06:26.366Z,9.30
2018-09-29T08:08:53.821Z,9.40
2018-09-29T08:11:21.329Z,9.50
2018-09-29T08:13:48.831Z,9.60
2018-09-29T08:16:16.343Z,9.70
2018-09-29T08:18:43.853Z,9.80
2018-09-29T08:21:11.372Z,10.00
2018-09-29T08:23:38.873Z,10.10
2018-09-29T08:26:06.394Z,10.20
2018-09-29T08:28:33.903Z,10.30
2018-09-29T08:31:01.421Z,10.40
2018-09-29T08:33:28.945Z,10.50
2018-09-29T08:35:56.446Z,10.60
2018-09-29T08:38:23.939Z,10.70
2018-09-29T08:40:51.450Z,10.80
2018-09-29T08:43:18.954Z,10.90
2018-09-29T08:45:46.462Z,11.00
2018-09-29T08:48:13.967Z,11.20
2018-09-29T08:50:41.462Z,11.30
2018-09-29T08:53:08.959Z,11.40
2018-09-29T08:55:43.349Z,11.50
2018-09-29T08:58:10.845Z,11.70
2018-09-29T09:00:38.566Z,11.90
2018-09-29T09:03:06.057Z,12.20
2018-09-29T09:05:33.620Z,12.50
2018-09-29T09:08:01.351Z,12.80
2018-09-29T09:10:28.857Z,13.00
2018-09-29T09:12:56.366Z,13.10
2018-09-29T09:15:23.863Z,13.40
2018-09-29T09:17:51.368Z,13.70
2018-09-29T09:20:18.891Z,14.10
2018-09-29T09:22:46.477Z,14.40
2018-09-29T09:25:13.917Z,14.70
2018-09-29T09:27:41.501Z,15.00
2018-09-29T09:30:09.039Z,15.40
2018-09-29T09:32:36.609Z,15.70
2018-09-29T09:35:04.131Z,16.10
2018-09-29T09:37:31.644Z,16.40
2018-09-29T09:39:59.147Z,16.80
2018-09-29T09:42:26.686Z,17.10
2018-09-29T09:44:54.196Z,17.40
2018-09-29T09:47:21.718Z,17.70
2018-09-29T09:49:49.243Z,18.00
2018-09-29T09:52:16.782Z,18.20
2018-09-29T09:54:44.311Z,18.40
2018-09-29T09:57:11.846Z,18.50
2018-09-29T09:59:39.361Z,18.60
2018-09-29T10:02:12.638Z,18.60
2018-09-29T10:04:40.191Z,18.80
2018-09-29T10:07:07.744Z,19.00
2018-09-29T10:09:36.341Z,19.20
2018-09-29T10:12:04.158Z,19.40
2018-09-29T10:14:31.816Z,19.70
2018-09-29T10:16:59.358Z,19.90
2018-09-29T10:19:26.886Z,20.10
2018-09-29T10:21:54.423Z,19.70
2018-09-29T10:24:21.966Z,19.60
2018-09-29T10:26:49.622Z,19.80
2018-09-29T10:29:17.138Z,19.80
2018-09-29T10:31:44.708Z,19.40
2018-09-29T10:34:12.237Z,19.70
2018-09-29T10:36:39.794Z,19.90
2018-09-29T10:39:09.380Z,20.50
2018-09-29T10:41:37.026Z,20.60
2018-09-29T10:44:04.972Z,20.50
2018-09-29T10:46:32.441Z,20.70
2018-09-29T10:48:59.989Z,20.80
2018-09-29T10:51:27.523Z,20.60
2018-09-29T10:53:55.055Z,19.80
2018-09-29T10:56:22.593Z,19.10
2018-09-29T10:58:50.127Z,18.90
2018-09-29T11:01:17.667Z,19.20
2018-09-29T11:03:45.190Z,19.60
2018-09-29T11:06:12.734Z,20.20
2018-09-29T11:08:40.267Z,20.70
2018-09-29T11:11:07.815Z,21.20
2018-09-29T11:13:35.330Z,21.50
2018-09-29T11:16:02.879Z,21.90
2018-09-29T11:18:30.426Z,22.10
2018-09-29T11:20:58.019Z,22.20
2018-09-29T11:23:25.521Z,22.10
2018-09-29T11:25:53.051Z,21.50
2018-09-29T11:28:21.002Z,20.90
2018-09-29T11:30:48.510Z,20.30
2018-09-29T11:33:16.037Z,20.20
2018-09-29T11:35:43.573Z,20.40
2018-09-29T11:38:11.120Z,20.70
2018-09-29T11:40:38.714Z,21.00
2018-09-29T11:43:06.189Z,21.30
2018-09-29T11:45:33.881Z,21.40
2018-09-29T11:48:01.402Z,21.50
2018-09-29T11:50:28.922Z,21.50
2018-09-29T11:52:56.453Z,21.80
2018-09-29T11:55:23.966Z,22.00
2018-09-29T11:57:51.505Z,22.00
2018-09-29T12:00:19.049Z,22.10
2018-09-29T12:02:46.575Z,21.60
2018-09-29T12:05:14.119Z,20.90
2018-09-29T12:07:41.929Z,19.90
2018-09-29T12:10:09.373Z,19.00
2018-09-29T12:12:36.906Z,18.40
2018-09-29T12:15:04.440Z,17.80
2018-09-29T12:17:31.970Z,17.40
2018-09-29T12:19:59.492Z,17.10
2018-09-29T12:22:27.069Z,17.00
2018-09-29T12:24:54.737Z,17.20
2018-09-29T12:27:24.919Z,17.80
2018-09-29T12:29:49.837Z,18.50
2018-09-29T12:32:17.353Z,18.90
2018-09-29T12:34:44.862Z,19.20
2018-09-29T12:37:12.898Z,19.50
2018-09-29T12:39:40.285Z,19.50
2018-09-29T12:42:07.831Z,19.30
2018-09-29T12:44:35.452Z,19.10
2018-09-29T12:47:02.928Z,18.90
2018-09-29T12:49:30.544Z,18.80
2018-09-29T12:51:58.100Z,18.80
2018-09-29T12:54:25.573Z,18.80
2018-09-29T12:56:53.079Z,18.80
2018-09-29T12:59:20.599Z,18.70
2018-09-29T13:01:48.109Z,18.70
2018-09-29T13:04:15.619Z,18.60
2018-09-29T13:06:43.147Z,18.50
2018-09-29T13:09:10.657Z,18.60
2018-09-29T13:11:38.196Z,18.70
2018-09-29T13:14:05.765Z,18.90
2018-09-29T13:16:33.258Z,19.10
2018-09-29T13:19:00.770Z,19.20
2018-09-29T13:21:28.338Z,19.30
2018-09-29T13:23:55.841Z,19.50
2018-09-29T13:26:23.358Z,19.70
2018-09-29T13:28:51.030Z,19.90
2018-09-29T13:31:18.550Z,19.80
2018-09-29T13:33:46.040Z,19.90
2018-09-29T13:36:16.637Z,20.00
2018-09-29T13:38:45.234Z,20.30
2018-09-29T13:41:13.091Z,20.30
2018-09-29T13:43:40.718Z,20.50
2018-09-29T13:46:08.298Z,20.80
2018-09-29T13:48:36.087Z,21.00
2018-09-29T13:51:03.618Z,21.20
2018-09-29T13:53:31.333Z,21.40
2018-09-29T13:55:58.845Z,21.50
2018-09-29T13:58:26.378Z,21.20
2018-09-29T14:00:53.909Z,20.90
2018-09-29T14:03:21.451Z,20.80
2018-09-29T14:05:48.961Z,20.80
2018-09-29T14:08:16.503Z,20.90
2018-09-29T14:10:44.025Z,21.10
2018-09-29T14:13:11.538Z,21.00
2018-09-29T14:15:39.041Z,21.00
2018-09-29T14:18:06.577Z,21.10
2018-09-29T14:20:34.104Z,21.20
2018-09-29T14:23:01.638Z,21.10
2018-09-29T14:25:29.171Z,21.00
2018-09-29T14:27:56.846Z,20.90
2018-09-29T14:30:24.371Z,20.70
2018-09-29T14:32:51.945Z,20.60
2018-09-29T14:35:19.470Z,20.50
2018-09-29T14:37:46.980Z,20.40
2018-09-29T14:40:14.501Z,20.20
2018-09-29T14:42:42.301Z,20.00
2018-09-29T14:45:09.853Z,19.80
2018-09-29T14:47:37.411Z,19.50
2018-09-29T14:50:05.022Z,19.10
2018-09-29T14:52:32.564Z,18.80
2018-09-29T14:55:00.099Z,18.50
2018-09-29T14:57:27.638Z,18.20
2018-09-29T14:59:55.539Z,18.10
2018-09-29T15:02:23.066Z,17.80
2018-09-29T15:04:50.586Z,17.70
2018-09-29T15:07:18.097Z,17.40
2018-09-29T15:09:45.630Z,17.10
2018-09-29T15:12:13.161Z,16.80
2018-09-29T15:14:40.689Z,16.60
2018-09-29T15:17:08.207Z,16.50
2018-09-29T15:19:35.750Z,16.40
2018-09-29T15:22:03.296Z,16.30
2018-09-29T15:24:30.819Z,16.20
2018-09-29T15:26:58.353Z,16.00
2018-09-29T15:29:25.879Z,15.90
2018-09-29T15:31:53.389Z,15.80
2018-09-29T15:34:20.910Z,15.70
2018-09-29T15:36:48.438Z,15.60
2018-09-29T15:39:15.986Z,15.50
2018-09-29T15:41:43.525Z,15.30
2018-09-29T15:44:11.190Z,15.30
2018-09-29T15:46:38.956Z,15.10
2018-09-29T15:49:06.502Z,15.00
2018-09-29T15:51:34.390Z,14.90
2018-09-29T15:54:01.908Z,14.80
2018-09-29T15:56:29.438Z,14.70
2018-09-29T15:58:56.977Z,14.60
2018-09-29T16:01:24.729Z,14.50
2018-09-29T16:03:52.268Z,14.30
2018-09-29T16:06:19.817Z,14.20
2018-09-29T16:08:47.351Z,14.00
2018-09-29T16:11:14.873Z,13.90
2018-09-29T16:13:42.396Z,13.70
2018-09-29T16:16:09.922Z,13.50
2018-09-29T16:18:37.471Z,13.40
2018-09-29T16:21:04.817Z,13.20
2018-09-29T16:23:32.339Z,13.00
2018-09-29T16:25:59.858Z,12.80
2018-09-29T16:28:27.374Z,12.70
2018-09-29T16:30:54.916Z,12.50
2018-09-29T16:33:22.434Z,12.30
2018-09-29T16:35:49.988Z,12.20
2018-09-29T16:38:17.532Z,12.00
2018-09-29T16:40:45.041Z,11.80
2018-09-29T16:43:12.547Z,11.70
2018-09-29T16:45:40.061Z,11.50
2018-09-29T16:48:07.597Z,11.30
2018-09-29T16:50:35.141Z,11.10
2018-09-29T16:53:02.650Z,10.90
2018-09-29T16:55:30.149Z,10.70
2018-09-29T16:57:57.641Z,10.60
2018-09-29T17:00:25.155Z,10.40
2018-09-29T17:02:52.666Z,10.30
2018-09-29T17:05:20.188Z,10.10
2018-09-29T17:07:47.703Z,10.00
2018-09-29T17:10:15.217Z,9.90
2018-09-29T17:12:42.732Z,9.70
2018-09-29T17:15:10.241Z,9.60
2018-09-29T17:17:37.747Z,9.50
2018-09-29T17:20:05.357Z,9.40
2018-09-29T17:22:32.873Z,9.30
2018-09-29T17:25:00.378Z,9.20
2018-09-29T17:27:27.886Z,9.10
2018-09-29T17:29:55.394Z,9.00
2018-09-29T17:32:22.902Z,9.00
2018-09-29T17:34:50.421Z,8.90
2018-09-29T17:37:17.933Z,8.90
2018-09-29T17:39:45.454Z,8.80
2018-09-29T17:42:12.988Z,8.70
2018-09-29T17:44:40.511Z,8.70
2018-09-29T17:47:08.002Z,8.60
2018-09-29T17:49:35.834Z,8.60
2018-09-29T17:52:03.363Z,8.50
2018-09-29T17:54:30.881Z,8.40
2018-09-29T17:56:58.393Z,8.40
2018-09-29T17:59:25.921Z,8.40
2018-09-29T18:01:53.463Z,8.30
2018-09-29T18:04:20.980Z,8.30
2018-09-29T18:06:48.499Z,8.30
2018-09-29T18:09:16.009Z,8.20
2018-09-29T18:11:43.518Z,8.10
2018-09-29T18:14:11.019Z,8.00
2018-09-29T18:16:38.557Z,8.00
2018-09-29T18:19:06.073Z,7.80
2018-09-29T18:21:33.634Z,7.70
2018-09-29T18:24:01.113Z,7.60
2018-09-29T18:26:28.625Z,7.60
2018-09-29T18:28:56.275Z,7.50
2018-09-29T18:31:23.791Z,7.50
2018-09-29T18:33:51.330Z,7.50
2018-09-29T18:36:18.948Z,7.40
2018-09-29T18:38:46.355Z,7.40
2018-09-29T18:41:13.865Z,7.30
2018-09-29T18:43:41.367Z,7.30
2018-09-29T18:46:09.037Z,7.20
2018-09-29T18:48:36.585Z,7.20
2018-09-29T18:51:04.097Z,7.20
2018-09-29T18:53:31.589Z,7.10
2018-09-29T18:55:59.093Z,7.10
2018-09-29T18:58:26.598Z,7.10
2018-09-29T19:00:54.101Z,7.10
2018-09-29T19:03:21.616Z,7.00
2018-09-29T19:05:49.132Z,7.00
2018-09-29T19:08:16.629Z,7.00
2018-09-29T19:10:44.156Z,7.00
2018-09-29T19:13:11.665Z,7.00
2018-09-29T19:15:39.189Z,7.00
2018-09-29T19:18:06.710Z,7.00
2018-09-29T19:20:34.222Z,7.00
2018-09-29T19:23:01.737Z,6.90
2018-09-29T19:25:29.260Z,6.90
2018-09-29T19:27:56.761Z,6.90
2018-09-29T19:30:24.273Z,6.90
2018-09-29T19:32:51.774Z,6.80
2018-09-29T19:35:19.477Z,6.80
2018-09-29T19:37:46.970Z,6.70
2018-09-29T19:40:14.509Z,6.70
2018-09-29T19:42:42.018Z,6.60
2018-09-29T19:45:09.521Z,6.60
2018-09-29T19:47:37.018Z,6.60
2018-09-29T19:50:04.959Z,6.50
2018-09-29T19:52:32.471Z,6.50
2018-09-29T19:54:59.982Z,6.40
2018-09-29T19:57:27.477Z,6.40
2018-09-29T19:59:54.964Z,6.30
2018-09-29T20:02:22.491Z,6.30
2018-09-29T20:04:49.965Z,6.20
2018-09-29T20:07:17.487Z,6.10
2018-09-29T20:09:45.003Z,6.10
2018-09-29T20:12:12.522Z,6.10
2018-09-29T20:14:40.041Z,6.00
2018-09-29T20:17:07.572Z,6.00
2018-09-29T20:19:35.066Z,5.90
2018-09-29T20:22:02.933Z,5.80
2018-09-29T20:24:30.506Z,5.80
2018-09-29T20:26:57.962Z,5.70
2018-09-29T20:29:25.473Z,5.70
2018-09-29T20:31:52.988Z,5.70
2018-09-29T20:34:20.495Z,5.70
2018-09-29T20:36:47.996Z,5.70
2018-09-29T20:39:15.504Z,5.70
2018-09-29T20:41:43.065Z,5.80
2018-09-29T20:44:10.838Z,5.90
2018-09-29T20:46:38.450Z,5.90
2018-09-29T20:49:06.977Z,6.00
2018-09-29T20:51:34.528Z,6.00
2018-09-29T20:54:02.093Z,6.10
2018-09-29T20:56:29.770Z,6.20
2018-09-29T20:58:57.289Z,6.20
2018-09-29T21:01:24.890Z,6.30
2018-09-29T21:03:52.362Z,6.30
2018-09-29T21:06:19.882Z,6.30
2018-09-29T21:08:47.394Z,6.30
2018-09-29T21:11:14.971Z,6.40
2018-09-29T21:13:42.509Z,6.40
2018-09-29T21:16:10.014Z,6.40
2018-09-29T21:18:37.521Z,6.50
2018-09-29T21:21:05.061Z,6.50
2018-09-29T21:23:32.731Z,6.50
2018-09-29T21:26:01.406Z,6.50
2018-09-29T21:28:28.993Z,6.40
2018-09-29T21:30:56.526Z,6.40
2018-09-29T21:33:24.050Z,6.40
2018-09-29T21:35:55.173Z,6.40
2018-09-29T21:38:22.704Z,6.40
2018-09-29T21:40:50.221Z,6.40
2018-09-29T21:43:17.737Z,6.40
2018-09-29T21:45:45.240Z,6.40
2018-09-29T21:48:12.764Z,6.40
2018-09-29T21:50:40.266Z,6.40
2018-09-29T21:53:07.778Z,6.40
2018-09-29T21:55:35.278Z,6.40
2018-09-29T21:58:02.786Z,6.40
2018-09-29T22:00:35.943Z,6.40
2018-09-29T22:03:03.454Z,6.40
2018-09-29T22:05:30.966Z,6.40
2018-09-29T22:07:58.471Z,6.40
2018-09-29T22:10:25.999Z,6.40
2018-09-29T22:12:53.538Z,6.30
2018-09-29T22:15:21.045Z,6.30
2018-09-29T22:17:48.553Z,6.30
2018-09-29T22:20:16.066Z,6.30
2018-09-29T22:22:43.593Z,6.30
2018-09-29T22:25:11.089Z,6.30
2018-09-29T22:27:38.585Z,6.30
2018-09-29T22:30:06.580Z,6.30
2018-09-29T22:32:34.073Z,6.30
2018-09-29T22:35:01.581Z,6.20
2018-09-29T22:37:29.111Z,6.10
2018-09-29T22:39:56.607Z,6.00
2018-09-29T22:42:24.117Z,6.00
2018-09-29T22:44:52.510Z,5.90
2018-09-29T22:47:20.030Z,5.80
2018-09-29T22:49:47.526Z,5.80
2018-09-29T22:52:15.039Z,5.70
2018-09-29T22:54:42.545Z,5.60
2018-09-29T22:57:10.064Z,5.60
2018-09-29T22:59:37.587Z,5.60
2018-09-29T23:02:05.754Z,5.50
2018-09-29T23:04:33.255Z,5.50
2018-09-29T23:07:00.771Z,5.40
2018-09-29T23:09:28.286Z,5.40
2018-09-29T23:11:55.797Z,5.40
2018-09-29T23:14:23.283Z,5.30
2018-09-29T23:16:50.791Z,5.30
2018-09-29T23:19:18.341Z,5.30
2018-09-29T23:21:45.874Z,5.30
2018-09-29T23:24:13.374Z,5.30
2018-09-29T23:26:40.878Z,5.40
2018-09-29T23:29:08.375Z,5.40
2018-09-29T23:31:35.880Z,5.40
2018-09-29T23:34:03.402Z,5.40
2018-09-29T23:36:30.930Z,5.40
2018-09-29T23:38:58.430Z,5.40
2018-09-29T23:41:25.974Z,5.30
2018-09-29T23:43:53.477Z,5.30
2018-09-29T23:46:20.990Z,5.40
2018-09-29T23:48:48.506Z,5.40
2018-09-29T23:51:16.041Z,5.40
2018-09-29T23:53:43.558Z,5.40
2018-09-29T23:56:11.081Z,5.40
2018-09-29T23:58:38.597Z,5.40
